Time;durP1;ratioP1;P1;durP2;ratioP2;P2;SDS_P1;SDS_P2;PMS_P1;PMS_P2;Temp;Humidity;BMP_temperature;BMP_pressure;BME280_temperature;BME280_humidity;BME280_pressure;Samples;Min_cycle;Max_cycle;Signal;HPM_P1;HPM_P2
2021/08/12 00:01:24;;;;;;;551.13;437.95;;;;;;;;;;5026517;28;20605;-78
2021/08/12 00:03:50;;;;;;;553.47;434.27;;;;;;;;;;5020050;28;20364;-78
2021/08/12 00:06:17;;;;;;;548.58;429.50;;;;;;;;;;5048270;28;20455;-78
2021/08/12 00:08:43;;;;;;;551.88;437.42;;;;;;;;;;5046774;28;20319;-78
2021/08/12 00:11:09;;;;;;;553.65;434.27;;;;;;;;;;5032167;28;20025;-79
2021/08/12 00:13:36;;;;;;;549.08;429.25;;;;;;;;;;5033780;28;20099;-78
2021/08/12 00:16:05;;;;;;;549.70;427.52;;;;;;;;;;5043152;28;20025;-78
2021/08/12 00:18:31;;;;;;;551.85;426.83;;;;;;;;;;5049835;28;20585;-78
2021/08/12 00:20:57;;;;;;;550.67;427.25;;;;;;;;;;5040778;28;20493;-77
2021/08/12 00:23:25;;;;;;;549.15;425.40;;;;;;;;;;5041651;28;20029;-78
2021/08/12 00:25:53;;;;;;;551.13;422.20;;;;;;;;;;5032744;28;20126;-78
2021/08/12 00:28:19;;;;;;;547.47;421.40;;;;;;;;;;5037043;28;20022;-78
2021/08/12 00:30:45;;;;;;;548.75;421.02;;;;;;;;;;5038700;28;20454;-78
2021/08/12 00:33:11;;;;;;;549.53;427.17;;;;;;;;;;5044340;28;20057;-78
2021/08/12 00:35:37;;;;;;;547.83;427.33;;;;;;;;;;5028404;28;20017;-78
2021/08/12 00:38:06;;;;;;;561.72;428.85;;;;;;;;;;5031490;28;20091;-79
2021/08/12 00:40:32;;;;;;;554.10;436.65;;;;;;;;;;5045583;28;20609;-76
2021/08/12 00:42:59;;;;;;;549.83;428.38;;;;;;;;;;5049096;28;20355;-76
2021/08/12 00:45:25;;;;;;;548.10;422.58;;;;;;;;;;5049972;28;20021;-76
2021/08/12 00:47:54;;;;;;;553.30;432.50;;;;;;;;;;5029748;28;20583;-77
2021/08/12 00:50:20;;;;;;;564.15;430.40;;;;;;;;;;5029680;28;20071;-77
2021/08/12 00:52:46;;;;;;;555.60;437.50;;;;;;;;;;5039760;28;20116;-78
2021/08/12 00:55:12;;;;;;;554.13;431.85;;;;;;;;;;5032846;28;20040;-78
2021/08/12 00:57:52;;;;;;;552.10;436.88;;;;;;;;;;5034854;28;20057;-79
2021/08/12 01:00:26;;;;;;;551.25;428.35;;;;;;;;;;5045670;28;20107;-77
2021/08/12 01:02:52;;;;;;;549.17;426.33;;;;;;;;;;5033472;28;20163;-78
2021/08/12 01:05:19;;;;;;;553.05;435.05;;;;;;;;;;5031479;28;20024;-78
2021/08/12 01:08:04;;;;;;;550.33;425.75;;;;;;;;;;5051297;28;20033;-77
2021/08/12 01:10:30;;;;;;;549.83;422.13;;;;;;;;;;5032033;28;20032;-78
2021/08/12 01:13:06;;;;;;;549.42;421.80;;;;;;;;;;5033093;28;20029;-78
2021/08/12 01:15:41;;;;;;;551.17;426.10;;;;;;;;;;5050932;28;20037;-78
2021/08/12 01:18:11;;;;;;;551.35;423.73;;;;;;;;;;5033465;28;20029;-77
2021/08/12 01:20:45;;;;;;;548.00;420.55;;;;;;;;;;5029596;28;20033;-78
2021/08/12 01:23:12;;;;;;;547.65;422.40;;;;;;;;;;5032987;28;20025;-77
2021/08/12 01:25:41;;;;;;;549.08;424.70;;;;;;;;;;5050062;28;20028;-78
2021/08/12 01:28:09;;;;;;;549.47;425.15;;;;;;;;;;5032528;28;20025;-78
2021/08/12 01:30:40;;;;;;;549.38;425.58;;;;;;;;;;5030914;28;20055;-78
2021/08/12 01:33:16;;;;;;;550.38;426.52;;;;;;;;;;5050326;28;20037;-77
2021/08/12 01:35:43;;;;;;;548.92;423.75;;;;;;;;;;5030922;28;20053;-78
2021/08/12 01:38:18;;;;;;;548.92;420.55;;;;;;;;;;5033724;28;20024;-79
2021/08/12 01:40:45;;;;;;;548.75;419.65;;;;;;;;;;5030865;28;20112;-78
2021/08/12 01:43:16;;;;;;;548.40;421.50;;;;;;;;;;5032709;28;20082;-78
2021/08/12 01:45:45;;;;;;;549.35;425.77;;;;;;;;;;5031461;28;20032;-78
2021/08/12 01:48:11;;;;;;;549.83;426.35;;;;;;;;;;5032321;28;20087;-76
2021/08/12 01:50:38;;;;;;;545.67;415.00;;;;;;;;;;5048045;28;20017;-78
2021/08/12 01:53:04;;;;;;;547.53;420.95;;;;;;;;;;5037915;28;20409;-79
2021/08/12 01:55:32;;;;;;;551.13;429.40;;;;;;;;;;5022629;28;20120;-78
2021/08/12 01:57:59;;;;;;;548.70;425.73;;;;;;;;;;5030135;28;20407;-78
2021/08/12 02:00:29;;;;;;;547.45;421.77;;;;;;;;;;5030567;28;20120;-79
2021/08/12 02:02:56;;;;;;;546.17;419.00;;;;;;;;;;5049798;28;20035;-78
2021/08/12 02:05:22;;;;;;;547.75;420.20;;;;;;;;;;5026672;28;20068;-78
2021/08/12 02:07:48;;;;;;;547.90;417.63;;;;;;;;;;5042155;28;20032;-78
2021/08/12 02:10:15;;;;;;;551.50;419.00;;;;;;;;;;5029211;28;20021;-78
2021/08/12 02:12:42;;;;;;;550.00;427.08;;;;;;;;;;5032315;28;20104;-79
2021/08/12 02:15:09;;;;;;;547.55;416.52;;;;;;;;;;5030535;28;20037;-78
2021/08/12 02:17:35;;;;;;;547.17;418.65;;;;;;;;;;5032425;28;20123;-78
2021/08/12 02:20:02;;;;;;;545.65;416.42;;;;;;;;;;5026806;28;20022;-78
2021/08/12 02:22:30;;;;;;;547.10;416.08;;;;;;;;;;5046231;28;20028;-78
2021/08/12 02:24:56;;;;;;;547.60;423.05;;;;;;;;;;5024628;28;20069;-78
2021/08/12 02:27:23;;;;;;;550.63;424.75;;;;;;;;;;5043867;28;20139;-78
2021/08/12 02:29:50;;;;;;;549.20;427.05;;;;;;;;;;5042946;28;20601;-78
2021/08/12 02:32:17;;;;;;;546.50;416.67;;;;;;;;;;5025401;28;20060;-77
2021/08/12 02:34:43;;;;;;;546.70;417.17;;;;;;;;;;5021100;28;20048;-79
2021/08/12 02:37:12;;;;;;;548.67;419.77;;;;;;;;;;5021196;28;20075;-78
2021/08/12 02:39:39;;;;;;;546.25;411.08;;;;;;;;;;5014036;28;20026;-78
2021/08/12 02:42:05;;;;;;;545.85;415.25;;;;;;;;;;5021592;28;20087;-78
2021/08/12 02:44:32;;;;;;;546.08;415.17;;;;;;;;;;5036420;28;20524;-78
2021/08/12 02:47:00;;;;;;;548.17;420.13;;;;;;;;;;5023503;28;20040;-77
2021/08/12 02:49:28;;;;;;;548.63;415.70;;;;;;;;;;5031740;28;20043;-78
2021/08/12 02:51:55;;;;;;;547.75;417.92;;;;;;;;;;5038596;28;20650;-78
2021/08/12 02:54:21;;;;;;;546.22;419.48;;;;;;;;;;5031562;28;20033;-78
2021/08/12 02:56:48;;;;;;;546.25;418.65;;;;;;;;;;5028102;28;20041;-77
2021/08/12 02:59:15;;;;;;;550.13;422.88;;;;;;;;;;5023756;28;20448;-77
2021/08/12 03:01:41;;;;;;;545.65;412.65;;;;;;;;;;5040457;28;20032;-78
2021/08/12 03:04:07;;;;;;;548.15;416.92;;;;;;;;;;5022904;28;20485;-78
2021/08/12 03:06:34;;;;;;;549.03;419.08;;;;;;;;;;5039981;28;20096;-78
2021/08/12 03:09:00;;;;;;;542.63;403.80;;;;;;;;;;5043216;28;20044;-78
2021/08/12 03:11:26;;;;;;;548.30;418.30;;;;;;;;;;5022671;28;20025;-79
2021/08/12 03:13:53;;;;;;;545.78;416.92;;;;;;;;;;5029997;28;20083;-79
2021/08/12 03:16:20;;;;;;;549.83;424.02;;;;;;;;;;5029435;28;20136;-78
2021/08/12 03:18:46;;;;;;;545.42;415.67;;;;;;;;;;5031338;28;20037;-78
2021/08/12 03:21:13;;;;;;;546.78;415.23;;;;;;;;;;5031590;28;20082;-77
2021/08/12 03:23:40;;;;;;;545.50;416.13;;;;;;;;;;5026535;28;20021;-77
2021/08/12 03:26:07;;;;;;;546.83;415.40;;;;;;;;;;5026407;28;20029;-77
2021/08/12 03:28:33;;;;;;;550.60;424.23;;;;;;;;;;5025632;28;20676;-77
2021/08/12 03:31:00;;;;;;;544.28;417.05;;;;;;;;;;5024392;28;20042;-78
2021/08/12 03:33:27;;;;;;;541.53;409.83;;;;;;;;;;5043820;28;20098;-77
2021/08/12 03:35:54;;;;;;;543.13;409.83;;;;;;;;;;5030208;28;20435;-78
2021/08/12 03:38:21;;;;;;;542.95;408.23;;;;;;;;;;5021608;28;20024;-78
2021/08/12 03:40:47;;;;;;;544.33;410.73;;;;;;;;;;5031263;28;20124;-79
2021/08/12 03:43:13;;;;;;;542.97;413.10;;;;;;;;;;5047731;28;20029;-78
2021/08/12 03:45:39;;;;;;;546.33;414.58;;;;;;;;;;5031639;28;20087;-77
2021/08/12 03:48:05;;;;;;;546.45;416.73;;;;;;;;;;5031700;28;20037;-78
2021/08/12 03:50:31;;;;;;;546.55;421.55;;;;;;;;;;5052676;28;20112;-77
2021/08/12 03:52:57;;;;;;;544.95;413.63;;;;;;;;;;5040477;28;20099;-78
2021/08/12 03:55:23;;;;;;;549.20;415.25;;;;;;;;;;5056286;28;20032;-78
2021/08/12 03:57:49;;;;;;;547.42;416.00;;;;;;;;;;5034168;28;20434;-77
2021/08/12 04:00:15;;;;;;;542.33;411.30;;;;;;;;;;5034326;28;20035;-77
2021/08/12 04:02:41;;;;;;;546.75;417.88;;;;;;;;;;5032180;28;20021;-78
2021/08/12 04:05:08;;;;;;;543.95;410.38;;;;;;;;;;5020994;28;20037;-79
2021/08/12 04:07:34;;;;;;;546.72;422.50;;;;;;;;;;5026296;28;20022;-78
2021/08/12 04:10:00;;;;;;;544.20;416.35;;;;;;;;;;5030582;28;20340;-77
2021/08/12 04:12:25;;;;;;;541.97;407.33;;;;;;;;;;5028456;28;20026;-78
2021/08/12 04:14:52;;;;;;;542.70;411.95;;;;;;;;;;5047574;28;20125;-77
2021/08/12 04:17:17;;;;;;;543.58;412.27;;;;;;;;;;5039950;28;20104;-78
2021/08/12 04:19:43;;;;;;;540.30;401.13;;;;;;;;;;5022983;28;20167;-78
2021/08/12 04:22:09;;;;;;;538.53;407.33;;;;;;;;;;5035680;28;20037;-77
2021/08/12 04:24:35;;;;;;;535.42;400.73;;;;;;;;;;5034741;28;20112;-79
2021/08/12 04:27:01;;;;;;;535.72;401.13;;;;;;;;;;5029783;28;20049;-77
2021/08/12 04:29:27;;;;;;;539.00;409.30;;;;;;;;;;5017637;28;20464;-77
2021/08/12 04:31:53;;;;;;;539.92;405.67;;;;;;;;;;5049460;28;20032;-78
2021/08/12 04:34:19;;;;;;;538.33;407.08;;;;;;;;;;5029403;28;20717;-77
2021/08/12 04:36:45;;;;;;;540.47;405.73;;;;;;;;;;5030838;28;20486;-78
2021/08/12 04:39:12;;;;;;;535.17;402.77;;;;;;;;;;5044679;28;20025;-78
2021/08/12 04:41:39;;;;;;;537.28;403.27;;;;;;;;;;5042402;28;20053;-77
2021/08/12 04:44:05;;;;;;;540.08;408.70;;;;;;;;;;5039588;28;20017;-78
2021/08/12 04:46:32;;;;;;;538.97;407.38;;;;;;;;;;5015019;28;20355;-78
2021/08/12 04:48:58;;;;;;;535.20;399.80;;;;;;;;;;5023475;28;20028;-78
2021/08/12 04:51:24;;;;;;;536.42;406.25;;;;;;;;;;5034186;28;20028;-78
2021/08/12 04:53:50;;;;;;;542.65;418.02;;;;;;;;;;5028163;28;20047;-78
2021/08/12 04:56:16;;;;;;;537.13;404.80;;;;;;;;;;5050752;28;20045;-77
2021/08/12 04:58:42;;;;;;;537.55;408.67;;;;;;;;;;5027225;28;20031;-77
2021/08/12 05:01:08;;;;;;;548.00;413.23;;;;;;;;;;5032878;28;20586;-78
2021/08/12 05:03:34;;;;;;;542.08;420.88;;;;;;;;;;5033089;28;20021;-77
2021/08/12 05:06:00;;;;;;;542.40;420.17;;;;;;;;;;5021500;28;20025;-77
2021/08/12 05:08:26;;;;;;;543.30;421.15;;;;;;;;;;5046180;28;20054;-78
2021/08/12 05:10:52;;;;;;;542.28;418.10;;;;;;;;;;5032647;28;20115;-79
2021/08/12 05:13:18;;;;;;;542.00;421.35;;;;;;;;;;5031853;28;20028;-78
2021/08/12 05:15:45;;;;;;;544.88;427.17;;;;;;;;;;5033217;28;20025;-78
2021/08/12 05:18:11;;;;;;;544.45;429.33;;;;;;;;;;5033190;28;20020;-78
2021/08/12 05:20:37;;;;;;;540.50;414.25;;;;;;;;;;5033199;28;20457;-78
2021/08/12 05:23:04;;;;;;;546.13;424.67;;;;;;;;;;5030607;28;20117;-78
2021/08/12 05:25:30;;;;;;;574.45;414.48;;;;;;;;;;5050710;28;20027;-79
2021/08/12 05:27:56;;;;;;;542.53;419.30;;;;;;;;;;5030585;28;20615;-77
2021/08/12 05:30:22;;;;;;;547.53;424.00;;;;;;;;;;5025545;28;20029;-79
2021/08/12 05:32:48;;;;;;;548.95;427.52;;;;;;;;;;5031924;28;20158;-77
2021/08/12 05:35:14;;;;;;;547.22;428.20;;;;;;;;;;5032590;28;20071;-77
2021/08/12 05:37:41;;;;;;;549.15;433.08;;;;;;;;;;5032909;28;20032;-79
2021/08/12 05:40:07;;;;;;;547.80;434.27;;;;;;;;;;5028883;28;20037;-77
2021/08/12 05:42:33;;;;;;;549.40;433.40;;;;;;;;;;5019687;28;20029;-78
2021/08/12 05:44:59;;;;;;;552.65;444.42;;;;;;;;;;5030598;28;20035;-78
2021/08/12 05:47:25;;;;;;;549.60;440.23;;;;;;;;;;5032692;28;20025;-78
2021/08/12 05:49:51;;;;;;;551.30;447.10;;;;;;;;;;5049021;28;20032;-78
2021/08/12 05:52:17;;;;;;;550.47;445.60;;;;;;;;;;5032177;28;20477;-78
2021/08/12 05:54:43;;;;;;;549.00;445.08;;;;;;;;;;5047430;28;20033;-78
2021/08/12 05:57:09;;;;;;;550.50;444.05;;;;;;;;;;5032738;28;20053;-78
2021/08/12 05:59:35;;;;;;;550.92;446.83;;;;;;;;;;5030426;28;20033;-78
2021/08/12 06:02:01;;;;;;;551.20;443.40;;;;;;;;;;5031939;28;20055;-78
2021/08/12 06:04:26;;;;;;;551.10;444.58;;;;;;;;;;5030203;28;20128;-78
2021/08/12 06:06:52;;;;;;;549.03;447.40;;;;;;;;;;5031913;28;20059;-78
2021/08/12 06:09:18;;;;;;;550.75;450.35;;;;;;;;;;5031376;28;20078;-78
2021/08/12 06:11:44;;;;;;;550.22;449.85;;;;;;;;;;5033234;28;20086;-78
2021/08/12 06:14:10;;;;;;;549.47;448.25;;;;;;;;;;5029220;28;20041;-78
2021/08/12 06:16:36;;;;;;;553.95;451.50;;;;;;;;;;5046481;28;20032;-79
2021/08/12 06:19:02;;;;;;;549.92;448.83;;;;;;;;;;5031574;28;20032;-78
2021/08/12 06:21:28;;;;;;;549.13;449.92;;;;;;;;;;5030760;28;20036;-78
2021/08/12 06:23:55;;;;;;;546.33;442.20;;;;;;;;;;5031877;28;20029;-78
2021/08/12 06:26:21;;;;;;;547.55;441.58;;;;;;;;;;5025262;28;20025;-78
2021/08/12 06:28:49;;;;;;;547.95;446.63;;;;;;;;;;5027954;28;20045;-79
2021/08/12 06:31:15;;;;;;;550.17;443.95;;;;;;;;;;5028919;28;20115;-77
2021/08/12 06:33:41;;;;;;;549.60;450.40;;;;;;;;;;5031412;28;20124;-79
2021/08/12 06:36:07;;;;;;;549.83;450.10;;;;;;;;;;5025638;28;20033;-77
2021/08/12 06:38:33;;;;;;;554.92;454.13;;;;;;;;;;5027002;28;20105;-76
2021/08/12 06:40:59;;;;;;;550.97;447.05;;;;;;;;;;5022306;28;20431;-78
2021/08/12 06:43:25;;;;;;;548.42;446.45;;;;;;;;;;5024546;28;20013;-77
2021/08/12 06:45:51;;;;;;;550.47;452.33;;;;;;;;;;5043881;28;20666;-77
2021/08/12 06:48:17;;;;;;;551.45;452.30;;;;;;;;;;5038899;28;20040;-79
2021/08/12 06:50:43;;;;;;;548.53;453.38;;;;;;;;;;5029046;28;20043;-78
2021/08/12 06:53:09;;;;;;;553.42;460.40;;;;;;;;;;5031642;28;20031;-78
2021/08/12 06:55:35;;;;;;;548.72;454.75;;;;;;;;;;5030799;28;20596;-78
2021/08/12 06:58:02;;;;;;;553.10;460.20;;;;;;;;;;5031143;28;20132;-78
2021/08/12 07:00:28;;;;;;;551.67;462.83;;;;;;;;;;5031797;28;20025;-78
2021/08/12 07:02:54;;;;;;;552.15;463.33;;;;;;;;;;5032324;28;20029;-78
2021/08/12 07:05:20;;;;;;;549.33;458.77;;;;;;;;;;5032297;28;20104;-78
2021/08/12 07:07:46;;;;;;;550.00;457.65;;;;;;;;;;5031792;28;20033;-79
2021/08/12 07:10:13;;;;;;;551.55;462.23;;;;;;;;;;5031581;28;20036;-79
2021/08/12 07:12:39;;;;;;;554.40;471.23;;;;;;;;;;5030657;28;20028;-79
2021/08/12 07:15:05;;;;;;;553.15;469.05;;;;;;;;;;5048114;28;20419;-78
2021/08/12 07:17:32;;;;;;;554.53;474.25;;;;;;;;;;5031774;28;20470;-78
2021/08/12 07:19:58;;;;;;;554.53;476.30;;;;;;;;;;5047308;28;20489;-79
2021/08/12 07:22:24;;;;;;;552.13;466.15;;;;;;;;;;5029497;28;20021;-81
2021/08/12 07:24:50;;;;;;;557.85;485.92;;;;;;;;;;5027162;28;20021;-78
2021/08/12 07:27:16;;;;;;;557.97;492.35;;;;;;;;;;5043314;28;20126;-78
2021/08/12 07:29:42;;;;;;;558.35;494.70;;;;;;;;;;5031423;28;20025;-78
2021/08/12 07:32:08;;;;;;;572.25;508.90;;;;;;;;;;5023125;28;20079;-78
2021/08/12 07:34:34;;;;;;;567.10;504.70;;;;;;;;;;5029508;28;20432;-76
2021/08/12 07:37:00;;;;;;;575.35;512.83;;;;;;;;;;5047666;28;20017;-77
2021/08/12 07:39:27;;;;;;;576.72;514.33;;;;;;;;;;5039856;28;20026;-77
2021/08/12 07:41:53;;;;;;;580.28;517.45;;;;;;;;;;5021232;28;20251;-77
2021/08/12 07:44:23;;;;;;;584.40;521.97;;;;;;;;;;5039399;28;20136;-78
2021/08/12 07:46:50;;;;;;;589.22;526.75;;;;;;;;;;5049287;28;20047;-77
2021/08/12 07:49:17;;;;;;;584.65;522.08;;;;;;;;;;5037936;28;20037;-78
2021/08/12 07:51:47;;;;;;;587.70;525.33;;;;;;;;;;5030259;28;20059;-77
2021/08/12 07:54:15;;;;;;;598.58;535.63;;;;;;;;;;5029641;28;20045;-79
2021/08/12 07:56:44;;;;;;;593.75;531.53;;;;;;;;;;5030691;28;20402;-77
2021/08/12 07:59:17;;;;;;;601.45;538.60;;;;;;;;;;5030238;28;20043;-78
2021/08/12 08:01:44;;;;;;;607.15;544.75;;;;;;;;;;5047152;28;20040;-77
2021/08/12 08:04:11;;;;;;;609.25;546.95;;;;;;;;;;5049232;28;20025;-77
2021/08/12 08:06:38;;;;;;;622.30;558.97;;;;;;;;;;5029489;28;20112;-78
2021/08/12 08:09:07;;;;;;;629.55;566.92;;;;;;;;;;5048565;28;20077;-77
2021/08/12 08:11:33;;;;;;;635.42;572.63;;;;;;;;;;5049331;28;20052;-78
2021/08/12 08:14:01;;;;;;;638.90;576.22;;;;;;;;;;5025733;28;20579;-78
2021/08/12 08:16:28;;;;;;;641.95;579.30;;;;;;;;;;5025451;28;20037;-77
2021/08/12 08:18:57;;;;;;;649.90;587.08;;;;;;;;;;5048020;28;20090;-79
2021/08/12 08:21:24;;;;;;;652.55;589.63;;;;;;;;;;5046739;28;20048;-78
2021/08/12 08:23:56;;;;;;;653.78;591.10;;;;;;;;;;5029916;28;20621;-79
2021/08/12 08:26:23;;;;;;;656.72;593.95;;;;;;;;;;5044832;28;20028;-78
2021/08/12 08:28:50;;;;;;;656.90;594.00;;;;;;;;;;5046628;28;20361;-78
2021/08/12 08:31:17;;;;;;;658.97;596.22;;;;;;;;;;5036074;28;20465;-75
2021/08/12 08:33:44;;;;;;;662.13;599.33;;;;;;;;;;5031129;28;20121;-77
2021/08/12 08:36:14;;;;;;;654.72;592.00;;;;;;;;;;5051159;28;20060;-76
2021/08/12 08:38:41;;;;;;;657.92;595.15;;;;;;;;;;5033188;28;20498;-77
2021/08/12 08:41:11;;;;;;;652.35;589.67;;;;;;;;;;5034333;28;20604;-77
2021/08/12 08:43:45;;;;;;;651.40;588.65;;;;;;;;;;5034387;28;20545;-77
2021/08/12 08:46:16;;;;;;;654.60;591.97;;;;;;;;;;5051120;28;20083;-77
2021/08/12 08:48:46;;;;;;;659.63;596.83;;;;;;;;;;5032162;28;20031;-76
2021/08/12 08:51:13;;;;;;;658.40;595.42;;;;;;;;;;5051062;28;20013;-76
2021/08/12 08:53:44;;;;;;;662.97;599.65;;;;;;;;;;5031974;28;20143;-77
2021/08/12 08:56:11;;;;;;;657.38;594.33;;;;;;;;;;5050528;28;20083;-76
2021/08/12 08:58:38;;;;;;;662.35;599.58;;;;;;;;;;5026565;28;20025;-76
2021/08/12 09:01:04;;;;;;;669.25;606.00;;;;;;;;;;5062636;28;20028;-76
2021/08/12 09:03:30;;;;;;;666.63;603.80;;;;;;;;;;5034844;28;20024;-77
2021/08/12 09:05:57;;;;;;;672.63;609.53;;;;;;;;;;5049844;28;20028;-77
2021/08/12 09:08:23;;;;;;;671.08;608.30;;;;;;;;;;5033838;28;20052;-76
2021/08/12 09:10:50;;;;;;;672.85;610.08;;;;;;;;;;5050128;28;20025;-75
2021/08/12 09:13:20;;;;;;;667.60;604.85;;;;;;;;;;5026998;28;20117;-77
2021/08/12 09:15:47;;;;;;;681.63;618.22;;;;;;;;;;5032595;28;20044;-78
2021/08/12 09:18:27;;;;;;;688.05;624.03;;;;;;;;;;5050308;28;20032;-78
2021/08/12 09:20:57;;;;;;;691.67;628.33;;;;;;;;;;5032897;28;20041;-77
2021/08/12 09:23:35;;;;;;;696.67;633.17;;;;;;;;;;5029005;28;20087;-77
2021/08/12 09:26:17;;;;;;;697.55;634.17;;;;;;;;;;5050893;28;20075;-79
2021/08/12 09:28:45;;;;;;;710.53;646.70;;;;;;;;;;5036305;28;20022;-79
2021/08/12 09:31:12;;;;;;;709.72;646.42;;;;;;;;;;5048562;28;20487;-75
2021/08/12 09:33:54;;;;;;;;;;;;;;;;;;;;;
2021/08/12 09:36:27;;;;;;;734.28;670.28;;;;;;;;;;5049960;28;20043;-76
2021/08/12 09:39:15;;;;;;;743.40;679.30;;;;;;;;;;5030529;28;20031;-77
2021/08/12 09:41:43;;;;;;;740.85;676.97;;;;;;;;;;5033451;28;20025;-76
2021/08/12 09:44:52;;;;;;;758.88;694.45;;;;;;;;;;5030941;28;20367;-79
2021/08/12 09:47:25;;;;;;;771.70;705.38;;;;;;;;;;4953179;28;20710;-77
2021/08/12 09:49:59;;;;;;;783.78;718.67;;;;;;;;;;4953763;28;20365;-76
2021/08/12 09:52:34;;;;;;;785.50;720.78;;;;;;;;;;5017612;28;20029;-77
2021/08/12 09:55:07;;;;;;;808.63;742.85;;;;;;;;;;5027617;28;20414;-76
2021/08/12 09:57:41;;;;;;;808.45;742.97;;;;;;;;;;5027340;28;20117;-76
2021/08/12 10:00:16;;;;;;;821.58;755.83;;;;;;;;;;5028243;28;20029;-79
2021/08/12 10:02:44;;;;;;;821.95;756.65;;;;;;;;;;5043406;28;20022;-75
2021/08/12 10:05:11;;;;;;;828.60;763.00;;;;;;;;;;5046265;28;20598;-76
2021/08/12 10:07:40;;;;;;;833.95;767.63;;;;;;;;;;5026897;28;20025;-74
2021/08/12 10:10:11;;;;;;;841.75;775.90;;;;;;;;;;5048815;28;20021;-75
2021/08/12 10:12:48;;;;;;;845.30;779.55;;;;;;;;;;5033066;28;20477;-75
2021/08/12 10:15:25;;;;;;;860.92;794.58;;;;;;;;;;5032241;28;20090;-75
2021/08/12 10:17:53;;;;;;;856.78;790.33;;;;;;;;;;5028513;28;20112;-77
2021/08/12 10:20:22;;;;;;;849.97;784.25;;;;;;;;;;5028756;28;20568;-76
2021/08/12 10:22:50;;;;;;;875.50;808.53;;;;;;;;;;5044157;28;20033;-77
2021/08/12 10:25:18;;;;;;;857.15;791.47;;;;;;;;;;5029491;28;20522;-76
2021/08/12 10:27:49;;;;;;;851.53;785.80;;;;;;;;;;5044382;28;20017;-77
2021/08/12 10:30:16;;;;;;;848.28;782.58;;;;;;;;;;5028837;28;20124;-77
2021/08/12 10:32:52;;;;;;;856.97;790.90;;;;;;;;;;5022758;28;20105;-78
2021/08/12 10:35:21;;;;;;;856.13;790.03;;;;;;;;;;5028886;28;20060;-75
2021/08/12 10:37:50;;;;;;;856.28;790.10;;;;;;;;;;5030053;28;20347;-75
2021/08/12 10:40:17;;;;;;;847.85;781.95;;;;;;;;;;5044447;28;20021;-76
2021/08/12 10:42:46;;;;;;;849.20;783.67;;;;;;;;;;5046783;28;20580;-79
2021/08/12 10:45:14;;;;;;;847.07;781.10;;;;;;;;;;5027951;28;20371;-78
2021/08/12 10:47:48;;;;;;;847.78;782.10;;;;;;;;;;5025816;28;20115;-82
2021/08/12 10:50:32;;;;;;;837.05;771.55;;;;;;;;;;5029499;28;20021;-74
2021/08/12 10:53:09;;;;;;;823.95;758.63;;;;;;;;;;5044545;28;20036;-75
2021/08/12 10:55:57;;;;;;;803.17;738.38;;;;;;;;;;5030220;28;20041;-74
2021/08/12 10:58:33;;;;;;;807.03;741.67;;;;;;;;;;5029162;28;20116;-75
2021/08/12 11:01:02;;;;;;;783.10;718.38;;;;;;;;;;5029537;28;20371;-74
2021/08/12 11:03:35;;;;;;;771.95;707.10;;;;;;;;;;5048603;28;20017;-74
2021/08/12 11:06:04;;;;;;;765.47;701.15;;;;;;;;;;5049114;28;20095;-74
2021/08/12 11:08:31;;;;;;;;;;;;;;;;;;5048758;28;20025;-74
2021/08/12 11:10:58;;;;;;;754.95;690.50;;;;;;;;;;5030521;28;20334;-76
2021/08/12 11:13:34;;;;;;;764.15;699.47;;;;;;;;;;5030353;28;20075;-76
2021/08/12 11:16:03;;;;;;;761.45;697.03;;;;;;;;;;5028649;28;20678;-72
2021/08/12 11:18:50;;;;;;;764.67;700.08;;;;;;;;;;5017404;28;20033;-76
2021/08/12 11:21:32;;;;;;;772.75;708.08;;;;;;;;;;5025793;28;20710;-77
2021/08/12 11:24:04;;;;;;;769.17;704.67;;;;;;;;;;5028624;28;20459;-75
2021/08/12 11:26:40;;;;;;;774.28;709.88;;;;;;;;;;5047157;28;20494;-75
2021/08/12 11:29:07;;;;;;;785.90;721.25;;;;;;;;;;5029047;28;20104;-75
2021/08/12 11:31:34;;;;;;;792.90;727.72;;;;;;;;;;5045781;28;20562;-74
2021/08/12 11:34:03;;;;;;;787.92;723.38;;;;;;;;;;5047318;28;20487;-76
2021/08/12 11:36:34;;;;;;;782.23;717.43;;;;;;;;;;5022900;28;20033;-78
2021/08/12 11:39:04;;;;;;;775.88;711.40;;;;;;;;;;5044460;28;20025;-73
2021/08/12 11:41:37;;;;;;;779.92;715.40;;;;;;;;;;5037089;28;20110;-75
2021/08/12 11:44:04;;;;;;;781.13;716.38;;;;;;;;;;5048016;28;20025;-74
2021/08/12 11:46:36;;;;;;;786.55;721.65;;;;;;;;;;5047149;28;20463;-74
2021/08/12 11:49:06;;;;;;;786.70;722.03;;;;;;;;;;5045596;28;20032;-74
2021/08/12 11:51:34;;;;;;;784.50;720.00;;;;;;;;;;5023288;28;20160;-74
2021/08/12 11:54:01;;;;;;;801.03;736.03;;;;;;;;;;5047531;28;20678;-76
2021/08/12 11:56:35;;;;;;;810.45;745.08;;;;;;;;;;5018024;28;20066;-75
2021/08/12 11:59:05;;;;;;;806.95;741.63;;;;;;;;;;4991679;28;20033;-75
2021/08/12 12:01:33;;;;;;;797.83;732.85;;;;;;;;;;5006971;28;20026;-75
2021/08/12 12:04:01;;;;;;;788.40;723.72;;;;;;;;;;5022033;28;20021;-75
2021/08/12 12:06:48;;;;;;;792.45;727.47;;;;;;;;;;4992064;28;20021;-76
2021/08/12 12:09:26;;;;;;;771.40;707.28;;;;;;;;;;5030739;28;20411;-81
2021/08/12 12:12:03;;;;;;;771.72;707.28;;;;;;;;;;5023726;28;20447;-81
2021/08/12 12:14:36;;;;;;;760.45;696.22;;;;;;;;;;5010844;28;20037;-82
2021/08/12 12:17:06;;;;;;;748.70;684.58;;;;;;;;;;5014154;28;20029;-79
2021/08/12 12:19:33;;;;;;;754.92;690.55;;;;;;;;;;5012618;28;20025;-75
2021/08/12 12:22:12;;;;;;;748.47;684.53;;;;;;;;;;5021537;28;20131;-75
2021/08/12 12:24:45;;;;;;;749.67;685.60;;;;;;;;;;5020987;28;20431;-74
2021/08/12 12:27:16;;;;;;;763.88;699.30;;;;;;;;;;5020700;28;20029;-74
2021/08/12 12:29:43;;;;;;;765.42;701.05;;;;;;;;;;5020343;28;20645;-75
2021/08/12 12:32:14;;;;;;;771.38;706.80;;;;;;;;;;5022108;28;20025;-76
2021/08/12 12:34:59;;;;;;;770.17;705.60;;;;;;;;;;5009778;28;20057;-75
2021/08/12 12:37:26;;;;;;;761.80;697.53;;;;;;;;;;5024887;28;20034;-74
2021/08/12 12:39:53;;;;;;;769.05;704.33;;;;;;;;;;5007122;28;20029;-74
2021/08/12 12:42:20;;;;;;;768.45;703.83;;;;;;;;;;5027025;28;20578;-74
2021/08/12 12:45:01;;;;;;;774.03;709.35;;;;;;;;;;5026171;28;20099;-75
2021/08/12 12:47:29;;;;;;;758.00;693.85;;;;;;;;;;5022130;28;20034;-75
2021/08/12 12:50:14;;;;;;;756.83;692.55;;;;;;;;;;5020567;28;20030;-76
2021/08/12 12:52:59;;;;;;;753.30;688.92;;;;;;;;;;5005395;28;20029;-75
2021/08/12 12:55:36;;;;;;;747.50;683.30;;;;;;;;;;4998942;28;20060;-76
2021/08/12 12:58:32;;;;;;;739.30;675.53;;;;;;;;;;5020569;28;20057;-77
2021/08/12 13:01:00;;;;;;;748.67;684.60;;;;;;;;;;5005461;28;21037;-75
2021/08/12 13:03:36;;;;;;;746.85;682.88;;;;;;;;;;5020250;28;20034;-73
2021/08/12 13:06:04;;;;;;;742.17;678.33;;;;;;;;;;5008265;28;20116;-78
2021/08/12 13:08:42;;;;;;;740.83;676.97;;;;;;;;;;5010620;28;20030;-79
2021/08/12 13:11:23;;;;;;;734.10;670.30;;;;;;;;;;5007192;28;20034;-78
2021/08/12 13:13:50;;;;;;;737.65;673.88;;;;;;;;;;5013836;28;20095;-80
2021/08/12 13:16:20;;;;;;;741.70;677.80;;;;;;;;;;5009355;28;20034;-78
2021/08/12 13:18:58;;;;;;;747.97;684.03;;;;;;;;;;5019800;28;20037;-79
2021/08/12 13:21:34;;;;;;;752.45;688.47;;;;;;;;;;5018186;28;20029;-78
2021/08/12 13:24:05;;;;;;;754.80;690.65;;;;;;;;;;5027556;28;20057;-78
2021/08/12 13:26:41;;;;;;;752.17;688.10;;;;;;;;;;5016131;28;20109;-79
2021/08/12 13:29:14;;;;;;;752.75;688.72;;;;;;;;;;5012221;28;20022;-78
2021/08/12 13:31:48;;;;;;;749.08;685.10;;;;;;;;;;5009448;28;20025;-79
2021/08/12 13:34:16;;;;;;;758.47;694.20;;;;;;;;;;5008886;28;20382;-77
2021/08/12 13:36:43;;;;;;;762.17;697.85;;;;;;;;;;5012771;28;20118;-78
2021/08/12 13:39:12;;;;;;;754.35;690.20;;;;;;;;;;5010894;28;20042;-78
2021/08/12 13:41:48;;;;;;;742.00;678.30;;;;;;;;;;5028181;28;20029;-78
2021/08/12 13:44:18;;;;;;;747.85;683.60;;;;;;;;;;5009057;28;20025;-78
2021/08/12 13:46:45;;;;;;;744.50;680.72;;;;;;;;;;5009364;28;20064;-79
2021/08/12 13:49:13;;;;;;;750.90;686.75;;;;;;;;;;5011634;28;20033;-78
2021/08/12 13:51:41;;;;;;;740.53;676.72;;;;;;;;;;5011148;28;20041;-78
2021/08/12 13:54:08;;;;;;;745.75;681.80;;;;;;;;;;5010780;28;20064;-79
2021/08/12 13:56:35;;;;;;;743.13;679.05;;;;;;;;;;5008255;28;20726;-79
2021/08/12 13:59:05;;;;;;;741.63;677.75;;;;;;;;;;5029139;28;20554;-78
2021/08/12 14:01:35;;;;;;;726.90;663.22;;;;;;;;;;5025104;28;20056;-79
2021/08/12 14:04:02;;;;;;;727.85;664.08;;;;;;;;;;5030216;28;20698;-79